createdAt,value
2023-05-22T00:01:46.870Z,99.90
2023-05-22T00:04:13.785Z,99.90
2023-05-22T00:06:43.844Z,99.90
2023-05-22T00:09:11.064Z,99.90
2023-05-22T00:11:39.392Z,99.90
2023-05-22T00:14:06.479Z,99.90
2023-05-22T00:16:33.349Z,99.90
2023-05-22T00:19:01.068Z,99.90
2023-05-22T00:21:27.987Z,99.90
2023-05-22T00:23:54.792Z,99.90
2023-05-22T00:26:23.942Z,99.90
2023-05-22T00:28:50.780Z,99.90
2023-05-22T00:31:17.609Z,99.90
2023-05-22T00:33:44.366Z,99.90
2023-05-22T00:36:11.113Z,99.90
2023-05-22T00:38:38.136Z,99.90
2023-05-22T00:41:06.833Z,99.90
2023-05-22T00:43:34.172Z,99.90
2023-05-22T00:46:01.114Z,99.90
2023-05-22T00:48:27.978Z,99.90
2023-05-22T00:50:57.919Z,99.90
2023-05-22T00:53:26.103Z,99.90
2023-05-22T00:56:19.684Z,99.90
2023-05-22T00:58:46.769Z,99.90
2023-05-22T01:01:13.988Z,99.90
2023-05-22T01:03:44.873Z,99.90
2023-05-22T01:06:13.366Z,99.90
2023-05-22T01:08:41.320Z,99.90
2023-05-22T01:15:41.243Z,99.90
2023-05-22T01:18:11.166Z,99.90
2023-05-22T01:20:52.833Z,99.90
2023-05-22T01:23:19.634Z,99.90
2023-05-22T01:30:23.582Z,99.90
2023-05-22T01:32:52.816Z,99.90
2023-05-22T01:35:21.460Z,99.90
2023-05-22T01:41:37.372Z,99.90
2023-05-22T01:44:04.329Z,99.90
2023-05-22T01:46:35.736Z,99.90
2023-05-22T01:49:02.631Z,99.90
2023-05-22T01:55:48.406Z,99.90
2023-05-22T01:58:43.361Z,99.90
2023-05-22T02:01:12.156Z,99.90
2023-05-22T02:03:40.386Z,99.90
2023-05-22T02:10:10.143Z,99.90
2023-05-22T02:12:37.678Z,99.90
2023-05-22T02:15:06.326Z,99.90
2023-05-22T02:17:40.409Z,99.90
2023-05-22T07:44:14.600Z,99.90
2023-05-22T07:46:41.633Z,99.90
2023-05-22T07:49:09.408Z,99.90
2023-05-22T07:51:36.512Z,99.90
2023-05-22T07:54:03.352Z,99.90
2023-05-22T07:56:30.725Z,99.90
2023-05-22T07:58:57.592Z,99.30
2023-05-22T08:01:24.474Z,99.90
2023-05-22T08:03:51.534Z,99.90
2023-05-22T08:06:18.547Z,99.70
2023-05-22T08:08:45.454Z,99.40
2023-05-22T08:11:12.421Z,98.60
2023-05-22T08:13:39.283Z,99.20
2023-05-22T08:16:06.465Z,98.90
2023-05-22T08:18:33.363Z,97.70
2023-05-22T08:21:00.735Z,97.50
2023-05-22T08:23:27.535Z,97.40
2023-05-22T08:25:54.325Z,98.20
2023-05-22T08:28:21.284Z,97.90
2023-05-22T08:30:48.291Z,97.20
2023-05-22T08:33:15.244Z,97.80
2023-05-22T08:35:42.050Z,96.60
2023-05-22T08:38:08.854Z,98.20
2023-05-22T08:40:41.314Z,96.40
2023-05-22T08:43:10.415Z,96.80
2023-05-22T08:45:37.872Z,96.90
2023-05-22T08:48:06.231Z,97.20
2023-05-22T08:50:37.083Z,95.40
2023-05-22T08:53:06.736Z,95.00
2023-05-22T08:55:33.629Z,95.40
2023-05-22T08:58:01.442Z,95.40
2023-05-22T09:00:29.649Z,94.30
2023-05-22T09:02:57.637Z,94.30
2023-05-22T09:05:28.198Z,94.50
2023-05-22T09:07:58.354Z,93.70
2023-05-22T09:10:29.906Z,93.00
2023-05-22T09:13:08.974Z,93.00
2023-05-22T09:15:37.498Z,92.30
2023-05-22T09:18:05.888Z,93.10
2023-05-22T09:20:37.998Z,93.40
2023-05-22T09:23:13.837Z,93.30
2023-05-22T09:25:42.455Z,93.40
2023-05-22T09:28:10.893Z,92.90
2023-05-22T09:30:38.169Z,93.50
2023-05-22T09:33:09.072Z,92.80
2023-05-22T09:35:39.203Z,92.60
2023-05-22T09:38:06.606Z,92.40
2023-05-22T09:40:34.999Z,92.60
2023-05-22T09:43:06.624Z,92.30
2023-05-22T09:45:35.171Z,92.10
2023-05-22T09:48:05.834Z,92.70
2023-05-22T09:50:33.080Z,93.10
2023-05-22T09:53:05.810Z,91.60
2023-05-22T09:55:33.694Z,91.70
2023-05-22T09:58:05.439Z,91.50
2023-05-22T10:00:34.324Z,92.40
2023-05-22T10:03:12.082Z,92.90
2023-05-22T10:05:50.538Z,92.20
2023-05-22T10:08:29.790Z,91.10
2023-05-22T10:10:57.910Z,92.00
2023-05-22T10:13:26.415Z,91.50
2023-05-22T10:15:54.180Z,91.80
2023-05-22T10:18:21.723Z,92.00
2023-05-22T10:20:48.991Z,91.60
2023-05-22T10:23:16.831Z,92.60
2023-05-22T10:25:45.608Z,92.80
2023-05-22T10:28:21.473Z,91.50
2023-05-22T10:30:56.354Z,92.20
2023-05-22T10:33:29.435Z,91.40
2023-05-22T10:36:01.769Z,91.30
2023-05-22T10:38:31.468Z,92.20
2023-05-22T10:40:59.153Z,92.30
2023-05-22T10:43:31.668Z,93.20
2023-05-22T10:46:06.214Z,92.40
2023-05-22T10:48:40.453Z,90.90
2023-05-22T10:51:08.359Z,91.40
2023-05-22T10:53:36.192Z,91.70
2023-05-22T10:56:16.504Z,90.90
2023-05-22T10:58:45.845Z,91.10
2023-05-22T11:01:21.186Z,91.10
2023-05-22T11:04:13.372Z,91.90
2023-05-22T11:06:43.562Z,92.00
2023-05-22T11:09:34.215Z,91.10
2023-05-22T11:12:31.337Z,89.20
2023-05-22T11:15:06.314Z,87.50
2023-05-22T11:17:36.355Z,87.00
2023-05-22T11:20:07.946Z,86.50
2023-05-22T11:22:37.119Z,86.00
2023-05-22T11:25:10.869Z,86.50
2023-05-22T11:27:39.333Z,83.90
2023-05-22T11:30:07.228Z,85.30
2023-05-22T11:32:36.726Z,87.10
2023-05-22T11:35:05.415Z,81.10
2023-05-22T11:37:32.804Z,82.10
2023-05-22T11:40:04.372Z,78.90
2023-05-22T11:42:31.379Z,81.70
2023-05-22T11:44:58.182Z,80.50
2023-05-22T11:47:29.118Z,82.50
2023-05-22T11:50:02.033Z,85.00
2023-05-22T11:52:36.570Z,84.30
2023-05-22T11:55:07.805Z,85.50
2023-05-22T11:57:35.764Z,84.00
2023-05-22T12:00:06.443Z,84.70
2023-05-22T12:02:33.409Z,78.80
2023-05-22T12:05:00.565Z,76.60
2023-05-22T12:07:27.823Z,76.20
2023-05-22T12:09:58.524Z,80.40
2023-05-22T12:12:26.061Z,79.10
2023-05-22T12:14:53.405Z,76.90
2023-05-22T12:17:20.365Z,72.80
2023-05-22T12:19:49.379Z,74.70
2023-05-22T12:22:16.159Z,77.70
2023-05-22T12:24:48.048Z,77.10
2023-05-22T12:27:15.472Z,77.20
2023-05-22T12:29:42.931Z,77.10
2023-05-22T12:32:11.624Z,70.40
2023-05-22T12:34:48.218Z,73.60
2023-05-22T12:37:28.408Z,76.90
2023-05-22T12:39:59.854Z,76.50
2023-05-22T12:42:27.653Z,73.40
2023-05-22T12:44:56.359Z,68.30
2023-05-22T12:47:24.493Z,66.20
2023-05-22T12:49:51.830Z,68.00
2023-05-22T12:52:18.727Z,62.80
2023-05-22T12:54:46.092Z,64.10
2023-05-22T12:57:12.859Z,59.40
2023-05-22T12:59:39.669Z,59.80
2023-05-22T13:02:06.774Z,71.40
2023-05-22T13:04:35.153Z,75.10
2023-05-22T13:07:01.973Z,77.50
2023-05-22T13:09:28.775Z,77.10
2023-05-22T13:11:55.655Z,67.90
2023-05-22T13:14:22.819Z,66.80
2023-05-22T13:16:49.593Z,64.80
2023-05-22T13:19:16.483Z,61.80
2023-05-22T13:21:43.750Z,64.60
2023-05-22T13:24:10.953Z,62.30
2023-05-22T13:26:37.765Z,65.10
2023-05-22T13:29:05.058Z,69.60
2023-05-22T13:31:37.139Z,73.70
2023-05-22T13:34:04.619Z,73.90
2023-05-22T13:36:31.648Z,70.50
2023-05-22T13:38:58.681Z,72.30
2023-05-22T13:41:25.580Z,72.20
2023-05-22T13:43:52.409Z,68.00
2023-05-22T13:46:21.072Z,69.20
2023-05-22T13:48:47.908Z,66.80
2023-05-22T13:51:14.716Z,71.00
2023-05-22T13:53:42.050Z,67.50
2023-05-22T13:56:08.818Z,69.10
2023-05-22T13:58:35.678Z,68.90
2023-05-22T14:01:02.456Z,70.20
2023-05-22T14:03:29.435Z,70.00
2023-05-22T14:05:56.227Z,73.70
2023-05-22T14:08:24.313Z,71.20
2023-05-22T14:10:51.225Z,69.30
2023-05-22T14:13:18.018Z,69.10
2023-05-22T14:15:46.922Z,70.10
2023-05-22T14:18:14.502Z,68.00
2023-05-22T14:20:41.490Z,68.20
2023-05-22T14:23:08.640Z,62.30
2023-05-22T14:25:35.515Z,64.40
2023-05-22T14:28:02.225Z,62.20
2023-05-22T14:30:29.016Z,65.60
2023-05-22T14:32:55.773Z,72.80
2023-05-22T14:35:22.756Z,74.10
2023-05-22T14:37:49.476Z,72.10
2023-05-22T14:40:16.329Z,73.10
2023-05-22T14:42:43.224Z,71.20
2023-05-22T14:45:10.393Z,69.70
2023-05-22T14:47:37.231Z,70.40
2023-05-22T14:50:18.287Z,73.00
2023-05-22T14:52:46.826Z,71.20
2023-05-22T14:55:13.533Z,72.70
2023-05-22T14:57:40.386Z,71.80
2023-05-22T15:00:09.703Z,73.30
2023-05-22T15:02:37.014Z,77.50
2023-05-22T15:05:04.504Z,79.20
2023-05-22T15:07:43.144Z,77.10
2023-05-22T15:10:11.250Z,80.10
2023-05-22T15:12:38.024Z,82.10
2023-05-22T15:15:05.123Z,82.50
2023-05-22T15:17:31.836Z,82.40
2023-05-22T15:19:58.603Z,83.60
2023-05-22T15:22:25.360Z,83.70
2023-05-22T15:25:06.741Z,87.30
2023-05-22T15:27:36.948Z,85.40
2023-05-22T15:30:04.817Z,85.20
2023-05-22T15:32:36.265Z,86.20
2023-05-22T15:35:03.384Z,84.80
2023-05-22T15:37:36.980Z,86.70
2023-05-22T15:40:04.598Z,87.80
2023-05-22T15:42:31.434Z,85.60
2023-05-22T15:45:00.169Z,84.50
2023-05-22T15:47:27.355Z,85.10
2023-05-22T15:49:54.152Z,86.30
2023-05-22T15:52:23.255Z,86.20
2023-05-22T15:54:50.111Z,85.90
2023-05-22T15:57:17.002Z,88.00
2023-05-22T15:59:43.705Z,85.50
2023-05-22T16:02:10.499Z,85.20
2023-05-22T16:04:37.195Z,88.00
2023-05-22T16:07:04.551Z,88.80
2023-05-22T16:09:32.789Z,90.20
2023-05-22T16:11:59.760Z,89.40
2023-05-22T16:14:26.477Z,89.20
2023-05-22T16:16:53.290Z,89.50
2023-05-22T16:19:20.051Z,90.10
2023-05-22T16:21:46.845Z,90.60
2023-05-22T16:24:13.614Z,89.90
2023-05-22T16:26:40.747Z,89.20
2023-05-22T16:29:11.147Z,89.10
2023-05-22T16:31:37.984Z,89.50
2023-05-22T16:34:05.525Z,88.90
2023-05-22T16:36:32.587Z,89.10
2023-05-22T16:38:59.468Z,89.80
2023-05-22T16:41:26.834Z,90.00
2023-05-22T16:43:53.700Z,90.60
2023-05-22T16:46:20.529Z,91.30
2023-05-22T16:48:47.301Z,90.30
2023-05-22T16:51:14.117Z,90.10
2023-05-22T16:53:41.848Z,91.10
2023-05-22T16:56:08.783Z,93.00
2023-05-22T16:58:35.788Z,92.60
2023-05-22T17:03:55.011Z,91.20
2023-05-22T17:06:22.734Z,93.70
2023-05-22T17:08:49.513Z,92.90
2023-05-22T17:11:16.326Z,89.40
2023-05-22T17:13:43.070Z,87.90
2023-05-22T17:16:09.845Z,89.50
2023-05-22T17:18:37.675Z,88.50
2023-05-22T17:21:04.573Z,87.90
2023-05-22T17:23:31.334Z,90.70
2023-05-22T17:25:58.134Z,91.50
2023-05-22T17:28:24.847Z,90.00
2023-05-22T17:30:51.651Z,88.50
2023-05-22T17:33:18.430Z,89.00
2023-05-22T17:35:45.586Z,90.50
2023-05-22T17:38:12.319Z,91.30
2023-05-22T17:40:45.622Z,93.50
2023-05-22T17:43:13.351Z,95.50
2023-05-22T17:45:40.416Z,97.20
2023-05-22T17:48:08.014Z,96.70
2023-05-22T17:50:34.978Z,96.80
2023-05-22T17:53:01.749Z,97.40
2023-05-22T17:55:28.476Z,99.90
2023-05-22T17:57:55.989Z,99.90
2023-05-22T18:00:22.760Z,99.90
2023-05-22T18:02:49.568Z,99.90
2023-05-22T18:05:16.409Z,99.90
2023-05-22T18:07:43.662Z,99.90
2023-05-22T18:10:10.839Z,99.90
2023-05-22T18:12:38.492Z,99.90
2023-05-22T18:15:08.459Z,99.90
2023-05-22T18:17:35.396Z,99.50
2023-05-22T18:20:02.196Z,98.60
2023-05-22T18:22:28.953Z,98.00
2023-05-22T18:24:56.220Z,98.00
2023-05-22T18:27:23.052Z,98.20
2023-05-22T18:29:51.679Z,98.50
2023-05-22T18:32:18.470Z,98.70
2023-05-22T18:34:45.232Z,98.60
2023-05-22T18:37:11.960Z,99.00
2023-05-22T18:39:38.701Z,99.30
2023-05-22T18:42:05.835Z,99.90
2023-05-22T18:44:32.637Z,99.90
2023-05-22T18:46:59.450Z,99.90
2023-05-22T18:49:26.352Z,99.90
2023-05-22T18:51:53.143Z,99.90
2023-05-22T18:54:19.880Z,99.90
2023-05-22T18:56:46.792Z,99.90
2023-05-22T18:59:13.497Z,99.90
2023-05-22T19:01:40.453Z,99.90
2023-05-22T19:04:07.640Z,99.90
2023-05-22T19:06:34.560Z,99.90
2023-05-22T19:09:01.740Z,99.90
2023-05-22T19:11:28.552Z,99.90
2023-05-22T19:13:55.567Z,99.90
2023-05-22T19:16:22.390Z,99.90
2023-05-22T19:18:49.164Z,99.90
2023-05-22T19:21:15.941Z,99.90
2023-05-22T19:23:42.772Z,99.90
2023-05-22T19:26:09.554Z,99.90
2023-05-22T19:28:36.331Z,99.90
2023-05-22T19:31:03.359Z,99.90
2023-05-22T19:33:33.715Z,99.90
2023-05-22T19:36:02.199Z,99.90
2023-05-22T19:38:29.128Z,99.90
2023-05-22T19:40:55.887Z,99.90
2023-05-22T19:43:22.902Z,99.90
2023-05-22T19:45:49.661Z,99.90
2023-05-22T19:48:16.458Z,99.90
2023-05-22T19:50:43.424Z,99.90
2023-05-22T19:53:10.390Z,99.90
2023-05-22T19:55:37.242Z,99.90
2023-05-22T19:58:04.060Z,99.90
2023-05-22T20:00:31.752Z,99.90
2023-05-22T20:02:58.587Z,99.90
2023-05-22T20:05:25.959Z,99.90
2023-05-22T20:07:52.805Z,99.90
2023-05-22T20:10:19.672Z,99.90
2023-05-22T20:12:47.133Z,99.90
2023-05-22T20:15:14.800Z,99.90
2023-05-22T20:17:42.530Z,99.90
2023-05-22T20:20:09.800Z,99.90
2023-05-22T20:22:36.617Z,99.90
2023-05-22T20:25:05.155Z,99.90
2023-05-22T20:27:32.072Z,99.90
2023-05-22T20:30:00.226Z,99.90
2023-05-22T20:32:27.577Z,99.90
2023-05-22T20:34:55.330Z,99.90
2023-05-22T20:37:22.386Z,99.90
2023-05-22T20:39:50.064Z,99.90
2023-05-22T20:42:19.900Z,99.90
2023-05-22T20:44:46.704Z,99.90
2023-05-22T20:47:13.470Z,99.90
2023-05-22T20:49:41.179Z,99.90
2023-05-22T20:52:09.940Z,99.90
2023-05-22T20:54:36.742Z,99.90
2023-05-22T20:57:03.793Z,99.90
2023-05-22T20:59:30.969Z,99.90
2023-05-22T21:01:58.022Z,99.90
2023-05-22T21:04:26.263Z,99.90
2023-05-22T21:06:53.100Z,99.90
2023-05-22T21:09:19.896Z,99.90
2023-05-22T21:11:46.785Z,99.90
2023-05-22T21:14:13.877Z,99.90
2023-05-22T21:16:40.786Z,99.90
2023-05-22T21:19:07.777Z,99.90
2023-05-22T21:21:36.249Z,99.90
2023-05-22T21:24:03.352Z,99.90
2023-05-22T21:26:30.132Z,99.90
2023-05-22T21:28:57.192Z,99.90
2023-05-22T21:31:24.029Z,99.90
2023-05-22T21:33:50.855Z,99.90
2023-05-22T21:36:17.672Z,99.90
2023-05-22T21:38:44.931Z,99.90
2023-05-22T21:41:12.285Z,99.90
2023-05-22T21:43:39.300Z,99.90
2023-05-22T21:46:06.072Z,99.90
2023-05-22T21:48:32.819Z,99.90
2023-05-22T21:50:59.631Z,99.90
2023-05-22T21:53:26.409Z,99.90
2023-05-22T21:55:53.168Z,99.90
2023-05-22T21:58:19.939Z,99.90
2023-05-22T22:00:46.651Z,99.90
2023-05-22T22:03:13.621Z,99.90
2023-05-22T22:05:41.030Z,99.90
2023-05-22T22:08:07.763Z,99.90
2023-05-22T22:10:34.531Z,99.90
2023-05-22T22:13:02.404Z,99.90
2023-05-22T22:15:29.362Z,99.90
2023-05-22T22:17:59.552Z,99.90
2023-05-22T22:20:42.375Z,99.90
2023-05-22T22:23:10.745Z,99.90
2023-05-22T22:25:39.174Z,99.90
2023-05-22T22:28:07.208Z,99.90
2023-05-22T22:30:35.159Z,99.90
2023-05-22T22:33:02.389Z,99.90
2023-05-22T22:35:29.398Z,99.90
2023-05-22T22:37:56.133Z,99.90
2023-05-22T22:40:24.724Z,99.90
2023-05-22T22:42:52.771Z,99.90
2023-05-22T22:45:19.561Z,99.90
2023-05-22T22:47:46.403Z,99.90
2023-05-22T22:50:13.224Z,99.90
2023-05-22T22:52:45.295Z,99.90
2023-05-22T22:55:12.417Z,99.90
2023-05-22T22:57:39.274Z,99.90
2023-05-22T23:00:06.727Z,99.90
2023-05-22T23:02:33.509Z,99.90
2023-05-22T23:05:00.426Z,99.90
2023-05-22T23:07:28.116Z,99.90
2023-05-22T23:09:54.877Z,99.90
2023-05-22T23:12:21.666Z,99.90
2023-05-22T23:14:50.430Z,99.90
2023-05-22T23:17:17.245Z,99.90
2023-05-22T23:19:44.257Z,99.90
2023-05-22T23:22:11.022Z,99.90
2023-05-22T23:24:37.983Z,99.90
2023-05-22T23:27:04.917Z,99.90
2023-05-22T23:29:31.617Z,99.90
2023-05-22T23:31:58.416Z,99.90
2023-05-22T23:34:25.274Z,99.90
2023-05-22T23:36:52.008Z,99.90
2023-05-22T23:39:18.723Z,99.90
2023-05-22T23:41:45.544Z,99.90
2023-05-22T23:44:12.344Z,99.90
2023-05-22T23:46:39.803Z,99.90
2023-05-22T23:49:07.365Z,99.90
2023-05-22T23:51:34.119Z,99.90
2023-05-22T23:54:01.138Z,99.90
2023-05-22T23:56:28.005Z,99.90
2023-05-22T23:58:54.739Z,99.90
